Time;durP1;ratioP1;P1;durP2;ratioP2;P2;SDS_P1;SDS_P2;PMS_P1;PMS_P2;Temp;Humidity;BMP_temperature;BMP_pressure;BME280_temperature;BME280_humidity;BME280_pressure;Samples;Min_cycle;Max_cycle;Signal;HPM_P1;HPM_P2
2023/03/25 00:00:44;;;;;;;5.50;4.60;;;9.70;99.90;;;;;;4956663;28;20497;-73
2023/03/25 00:03:13;;;;;;;5.03;4.40;;;9.70;99.90;;;;;;4960107;28;21631;-72
2023/03/25 00:05:41;;;;;;;4.73;4.20;;;9.60;99.90;;;;;;4967010;28;20590;-73
2023/03/25 00:08:09;;;;;;;5.97;4.70;;;9.60;99.90;;;;;;4965737;28;20501;-72
2023/03/25 00:10:37;;;;;;;4.73;4.17;;;9.60;99.90;;;;;;4963813;28;20501;-73
2023/03/25 00:13:07;;;;;;;7.17;4.90;;;9.60;99.90;;;;;;4964572;28;20490;-72
2023/03/25 00:15:36;;;;;;;5.10;4.60;;;9.60;99.90;;;;;;4963284;28;20608;-71
2023/03/25 00:18:05;;;;;;;5.30;4.80;;;9.60;99.90;;;;;;4962705;28;20470;-72
2023/03/25 00:20:33;;;;;;;5.40;4.40;;;9.50;99.90;;;;;;4961131;28;20486;-72
2023/03/25 00:23:00;;;;;;;5.00;4.50;;;9.50;99.90;;;;;;4963645;28;20497;-74
2023/03/25 00:25:28;;;;;;;6.53;4.93;;;9.50;99.90;;;;;;4967606;28;20477;-72
2023/03/25 00:27:56;;;;;;;5.20;4.60;;;9.50;99.90;;;;;;4961335;28;20607;-72
2023/03/25 00:30:24;;;;;;;5.90;5.17;;;9.50;99.90;;;;;;4960384;28;21158;-72
2023/03/25 00:32:54;;;;;;;6.20;5.03;;;9.50;99.90;;;;;;4968062;28;21017;-72
2023/03/25 00:35:22;;;;;;;7.30;5.40;;;9.50;99.90;;;;;;4963486;28;20475;-72
2023/03/25 00:37:56;;;;;;;5.40;4.87;;;9.50;99.90;;;;;;4966893;28;20467;-73
2023/03/25 00:40:27;;;;;;;7.73;5.30;;;9.50;99.90;;;;;;4962628;28;20497;-74
2023/03/25 00:42:55;;;;;;;8.27;5.50;;;9.50;99.90;;;;;;4960886;28;20516;-72
2023/03/25 00:45:23;;;;;;;8.30;5.50;;;9.40;99.90;;;;;;4959355;28;20480;-72
2023/03/25 00:47:51;;;;;;;6.70;5.97;;;9.40;99.90;;;;;;4956385;28;20820;-73
2023/03/25 00:50:21;;;;;;;6.90;5.40;;;9.50;99.90;;;;;;4963216;28;20536;-72
2023/03/25 00:52:50;;;;;;;6.80;5.60;;;9.50;99.90;;;;;;4957418;28;21096;-74
2023/03/25 00:55:18;;;;;;;6.83;5.23;;;9.50;99.90;;;;;;4955635;28;20493;-74
2023/03/25 00:57:46;;;;;;;6.97;5.37;;;9.50;99.90;;;;;;4956937;28;20473;-74
2023/03/25 01:00:17;;;;;;;6.70;6.00;;;9.50;99.90;;;;;;4957580;28;20594;-72
2023/03/25 01:02:45;;;;;;;5.83;5.20;;;9.50;99.90;;;;;;4966538;28;20687;-72
2023/03/25 01:05:13;;;;;;;7.00;5.40;;;9.40;99.90;;;;;;4983696;28;20479;-72
2023/03/25 01:07:43;;;;;;;7.23;5.80;;;9.50;99.90;;;;;;4987391;28;20484;-72
2023/03/25 01:10:11;;;;;;;7.90;6.23;;;9.50;99.90;;;;;;4985221;28;20876;-72
2023/03/25 01:12:39;;;;;;;6.23;5.63;;;9.50;99.90;;;;;;4986240;28;20481;-71
2023/03/25 01:15:09;;;;;;;6.27;5.67;;;9.50;99.90;;;;;;4987550;28;20473;-72
2023/03/25 01:17:37;;;;;;;7.80;5.70;;;9.50;99.90;;;;;;4981401;28;20476;-72
2023/03/25 01:20:07;;;;;;;8.97;5.93;;;9.50;99.90;;;;;;4979994;28;20911;-72
2023/03/25 01:22:36;;;;;;;7.07;5.40;;;9.50;99.90;;;;;;4985434;28;20505;-72
2023/03/25 01:25:05;;;;;;;5.63;4.50;;;9.50;99.90;;;;;;4980470;28;22523;-72
2023/03/25 01:27:33;;;;;;;5.50;4.90;;;9.60;99.90;;;;;;4981350;28;21029;-72
2023/03/25 01:30:01;;;;;;;6.07;5.30;;;9.60;99.90;;;;;;4981531;28;20489;-72
2023/03/25 01:32:29;;;;;;;9.00;5.13;;;9.60;99.90;;;;;;4982784;28;21100;-72
2023/03/25 01:34:57;;;;;;;7.20;5.10;;;9.60;99.90;;;;;;4988310;28;20477;-72
2023/03/25 01:37:26;;;;;;;5.37;4.73;;;9.60;99.90;;;;;;4987295;28;20495;-72
2023/03/25 01:39:54;;;;;;;5.37;4.30;;;9.60;99.90;;;;;;4982039;28;21032;-73
2023/03/25 01:42:23;;;;;;;5.17;4.60;;;9.60;99.90;;;;;;4988229;28;20495;-73
2023/03/25 01:45:23;;;;;;;6.57;4.67;;;9.70;99.90;;;;;;4981950;28;21000;-72
2023/03/25 01:48:01;;;;;;;5.63;4.40;;;9.70;99.90;;;;;;4919243;29;20524;-72
2023/03/25 01:50:31;;;;;;;6.67;4.47;;;9.70;99.90;;;;;;4979251;28;20507;-72
2023/03/25 01:53:03;;;;;;;6.40;4.70;;;9.70;99.90;;;;;;4972796;28;20484;-72
2023/03/25 01:55:33;;;;;;;6.10;4.53;;;9.70;99.90;;;;;;4989239;28;20835;-72
2023/03/25 01:58:09;;;;;;;4.83;4.00;;;9.70;99.90;;;;;;4990243;28;20528;-72
2023/03/25 02:00:39;;;;;;;5.40;4.90;;;9.70;99.90;;;;;;4980298;28;20500;-72
2023/03/25 02:03:09;;;;;;;5.80;4.63;;;9.60;99.90;;;;;;4984616;28;20576;-72
2023/03/25 02:05:42;;;;;;;4.70;4.30;;;9.60;99.90;;;;;;4986619;28;20526;-72
2023/03/25 02:08:10;;;;;;;6.03;4.60;;;9.70;99.90;;;;;;4984480;28;20500;-72
2023/03/25 02:10:39;;;;;;;5.70;4.63;;;9.70;99.90;;;;;;4979339;28;20511;-72
2023/03/25 02:13:08;;;;;;;6.90;4.97;;;9.70;99.90;;;;;;4981262;28;20898;-72
2023/03/25 02:15:52;;;;;;;6.97;4.60;;;9.60;99.90;;;;;;4985116;28;20479;-72
2023/03/25 02:18:38;;;;;;;5.70;4.13;;;9.70;99.90;;;;;;4986362;28;20479;-73
2023/03/25 02:21:44;;;;;;;7.37;4.67;;;9.60;99.90;;;;;;4978699;28;20492;-73
2023/03/25 02:24:44;;;;;;;4.73;4.30;;;9.60;99.90;;;;;;4964020;28;20488;-74
2023/03/25 02:27:25;;;;;;;6.80;4.77;;;9.60;99.90;;;;;;4968471;28;20480;-72
2023/03/25 02:30:28;;;;;;;6.17;5.03;;;9.60;99.90;;;;;;4962542;28;20619;-73
2023/03/25 02:33:29;;;;;;;6.00;4.80;;;9.60;99.90;;;;;;4971524;28;20488;-72
2023/03/25 02:36:41;;;;;;;5.57;4.60;;;9.60;99.90;;;;;;4987572;28;20473;-73
2023/03/25 02:39:14;;;;;;;6.37;4.57;;;9.60;99.90;;;;;;4987757;28;20533;-72
2023/03/25 02:41:50;;;;;;;5.73;4.90;;;9.60;99.90;;;;;;4987103;28;20468;-72
2023/03/25 02:44:25;;;;;;;5.13;4.60;;;9.60;99.90;;;;;;4982961;28;20472;-73
2023/03/25 02:46:57;;;;;;;5.40;4.63;;;9.50;99.90;;;;;;4987697;28;20985;-72
2023/03/25 02:49:29;;;;;;;5.57;4.43;;;9.50;99.90;;;;;;4986692;28;20519;-73
2023/03/25 02:52:01;;;;;;;5.57;4.63;;;9.50;99.90;;;;;;4982798;28;20477;-73
2023/03/25 02:54:33;;;;;;;5.00;4.47;;;9.50;99.90;;;;;;4989451;28;20598;-72
2023/03/25 02:57:02;;;;;;;5.40;4.47;;;9.50;99.90;;;;;;4988472;28;20978;-72
2023/03/25 02:59:32;;;;;;;8.43;4.23;;;9.50;99.90;;;;;;4985743;28;20513;-72
2023/03/25 03:02:04;;;;;;;6.63;4.40;;;9.40;99.90;;;;;;4983063;28;21022;-71
2023/03/25 03:04:32;;;;;;;5.43;3.90;;;9.40;99.90;;;;;;4984570;28;20473;-71
2023/03/25 03:07:01;;;;;;;4.33;3.93;;;9.40;99.90;;;;;;4987071;28;20473;-72
2023/03/25 03:09:39;;;;;;;5.73;3.97;;;9.40;99.90;;;;;;4980287;28;20503;-72
2023/03/25 03:12:25;;;;;;;7.10;4.30;;;9.40;99.90;;;;;;4979413;28;20477;-72
2023/03/25 03:15:03;;;;;;;5.63;4.30;;;9.50;99.90;;;;;;4980822;28;20473;-72
2023/03/25 03:17:38;;;;;;;6.27;4.60;;;9.50;99.90;;;;;;4987404;28;20502;-72
2023/03/25 03:20:18;;;;;;;6.10;4.17;;;9.50;99.90;;;;;;4981434;28;20493;-72
2023/03/25 03:22:51;;;;;;;6.73;4.00;;;9.50;99.90;;;;;;4984815;28;20488;-74
2023/03/25 03:25:28;;;;;;;7.37;4.70;;;9.40;99.90;;;;;;4979254;28;20504;-72
2023/03/25 03:27:58;;;;;;;4.80;4.27;;;9.40;99.90;;;;;;4982402;28;20843;-72
2023/03/25 03:30:32;;;;;;;4.77;4.37;;;9.40;99.90;;;;;;4985309;28;20507;-73
2023/03/25 03:33:08;;;;;;;5.70;4.90;;;9.40;99.90;;;;;;4983472;28;20943;-72
2023/03/25 03:35:41;;;;;;;8.00;4.60;;;9.40;99.90;;;;;;4986508;28;20471;-72
2023/03/25 03:38:13;;;;;;;7.07;4.70;;;9.40;99.90;;;;;;4985534;28;20473;-72
2023/03/25 03:40:48;;;;;;;5.10;4.40;;;9.40;99.90;;;;;;4985509;28;20505;-72
2023/03/25 03:43:21;;;;;;;6.53;5.10;;;9.40;99.90;;;;;;4983821;28;20493;-74
2023/03/25 03:45:52;;;;;;;6.90;4.70;;;9.40;99.90;;;;;;4986452;28;20477;-72
2023/03/25 03:48:25;;;;;;;6.20;4.57;;;9.40;99.90;;;;;;4980716;28;20476;-71
2023/03/25 03:50:56;;;;;;;4.93;4.43;;;9.40;99.90;;;;;;4978027;28;20499;-73
2023/03/25 03:53:29;;;;;;;5.23;4.73;;;9.30;99.90;;;;;;4985668;28;20488;-72
2023/03/25 03:56:03;;;;;;;5.97;4.50;;;9.40;99.90;;;;;;4980770;28;20982;-73
2023/03/25 03:58:34;;;;;;;6.63;4.23;;;9.30;99.90;;;;;;4979717;28;20523;-72
2023/03/25 04:01:08;;;;;;;6.70;4.63;;;9.30;99.90;;;;;;4985216;28;20485;-73
2023/03/25 04:03:42;;;;;;;5.93;4.10;;;9.30;99.90;;;;;;4983044;28;20477;-72
2023/03/25 04:06:19;;;;;;;4.33;3.93;;;9.30;99.90;;;;;;4984677;28;20473;-71
2023/03/25 04:08:57;;;;;;;9.10;4.43;;;9.40;99.90;;;;;;4984545;28;20484;-72
2023/03/25 04:11:30;;;;;;;4.73;4.10;;;9.40;99.90;;;;;;4988473;28;20480;-72
2023/03/25 04:14:00;;;;;;;6.83;4.30;;;9.30;99.90;;;;;;4976733;28;21045;-73
2023/03/25 04:16:31;;;;;;;5.87;3.83;;;9.30;99.90;;;;;;4983961;28;20469;-72
2023/03/25 04:19:03;;;;;;;5.03;4.00;;;9.30;99.90;;;;;;4985085;28;20465;-72
2023/03/25 04:21:31;;;;;;;4.30;3.80;;;9.30;99.90;;;;;;4986786;28;20469;-72
2023/03/25 04:24:00;;;;;;;4.37;3.90;;;9.30;99.90;;;;;;4980106;28;20497;-72
2023/03/25 04:26:32;;;;;;;5.60;3.97;;;9.30;99.90;;;;;;4986250;28;20527;-72
2023/03/25 04:29:01;;;;;;;5.50;3.80;;;9.30;99.90;;;;;;4980077;28;20473;-72
2023/03/25 04:31:30;;;;;;;4.17;3.77;;;9.30;99.90;;;;;;4984814;28;20468;-73
2023/03/25 04:33:59;;;;;;;4.77;4.00;;;9.30;99.90;;;;;;4985342;28;20988;-73
2023/03/25 04:36:28;;;;;;;4.30;3.53;;;9.30;99.90;;;;;;4988843;28;20481;-74
2023/03/25 04:38:57;;;;;;;7.10;3.60;;;9.30;99.90;;;;;;4988316;28;20478;-73
2023/03/25 04:41:27;;;;;;;3.97;3.57;;;9.40;99.90;;;;;;4982207;28;20469;-72
2023/03/25 04:43:57;;;;;;;3.97;3.57;;;9.40;99.90;;;;;;4987357;28;20481;-72
2023/03/25 04:46:25;;;;;;;3.77;3.47;;;9.40;99.90;;;;;;4987121;28;20603;-72
2023/03/25 04:48:55;;;;;;;3.83;3.23;;;9.40;99.90;;;;;;4988691;28;20477;-72
2023/03/25 04:51:24;;;;;;;5.10;3.73;;;9.40;99.90;;;;;;4987721;28;20607;-72
2023/03/25 04:53:51;;;;;;;4.87;3.50;;;9.30;99.90;;;;;;4986990;28;20492;-72
2023/03/25 04:56:20;;;;;;;4.90;3.33;;;9.20;99.90;;;;;;4988151;28;20469;-72
2023/03/25 04:58:47;;;;;;;8.40;3.90;;;9.20;99.90;;;;;;4982600;28;20476;-72
2023/03/25 05:01:29;;;;;;;4.10;3.40;;;9.10;99.90;;;;;;4976395;28;20500;-72
2023/03/25 05:04:04;;;;;;;4.17;3.73;;;9.10;99.90;;;;;;4983372;28;20492;-71
2023/03/25 05:06:33;;;;;;;5.83;3.40;;;9.10;99.90;;;;;;4978347;28;20476;-72
2023/03/25 05:09:03;;;;;;;6.50;3.90;;;9.10;99.90;;;;;;4980417;28;20484;-72
2023/03/25 05:11:32;;;;;;;4.80;4.30;;;9.10;99.90;;;;;;4986096;28;20496;-74
2023/03/25 05:14:00;;;;;;;4.43;3.73;;;9.10;99.90;;;;;;4989616;28;20493;-72
2023/03/25 05:16:30;;;;;;;4.43;3.70;;;9.10;99.90;;;;;;4987844;28;20830;-72
2023/03/25 05:18:58;;;;;;;4.10;3.70;;;9.10;99.90;;;;;;4987437;28;21048;-72
2023/03/25 05:21:26;;;;;;;5.53;4.07;;;9.10;99.90;;;;;;4989125;28;20473;-74
2023/03/25 05:23:56;;;;;;;5.10;3.97;;;9.10;99.90;;;;;;4987956;28;20499;-71
2023/03/25 05:26:33;;;;;;;4.77;4.17;;;9.00;99.90;;;;;;4988055;28;20523;-72
2023/03/25 05:29:01;;;;;;;5.00;3.17;;;9.00;99.90;;;;;;4983995;28;20476;-71
2023/03/25 05:31:31;;;;;;;4.57;4.00;;;9.00;99.90;;;;;;4978233;28;21108;-71
2023/03/25 05:33:59;;;;;;;4.97;3.63;;;9.00;99.90;;;;;;4986041;28;20543;-72
2023/03/25 05:36:28;;;;;;;8.87;4.63;;;9.00;99.90;;;;;;4988608;28;20469;-71
2023/03/25 05:38:57;;;;;;;4.50;3.50;;;9.00;99.90;;;;;;4979966;28;20480;-72
2023/03/25 05:41:31;;;;;;;6.30;3.57;;;9.00;99.90;;;;;;4978516;28;22083;-72
2023/03/25 05:44:00;;;;;;;4.73;4.30;;;8.90;99.90;;;;;;4981015;28;20492;-72
2023/03/25 05:46:29;;;;;;;4.53;3.50;;;8.90;99.90;;;;;;4982686;28;20492;-72
2023/03/25 05:48:59;;;;;;;5.43;4.00;;;8.90;99.90;;;;;;4982793;28;20938;-72
2023/03/25 05:51:32;;;;;;;5.37;4.00;;;8.80;99.90;;;;;;4983571;28;20496;-73
2023/03/25 05:54:01;;;;;;;4.80;3.63;;;8.80;99.90;;;;;;4985490;28;20492;-73
2023/03/25 05:56:29;;;;;;;5.83;3.73;;;8.80;99.90;;;;;;4988141;28;20474;-72
2023/03/25 05:58:57;;;;;;;5.40;3.57;;;8.80;99.90;;;;;;4984776;28;20997;-73
2023/03/25 06:01:26;;;;;;;4.63;3.70;;;8.80;99.90;;;;;;4981040;28;20493;-72
2023/03/25 06:04:03;;;;;;;6.13;4.20;;;8.80;99.90;;;;;;4981232;28;20491;-72
2023/03/25 06:06:32;;;;;;;4.47;3.33;;;8.80;99.90;;;;;;4982468;28;20480;-72
2023/03/25 06:09:03;;;;;;;5.13;3.63;;;8.80;99.90;;;;;;4980076;28;20473;-72
2023/03/25 06:11:36;;;;;;;6.40;3.63;;;8.80;99.90;;;;;;4975087;28;20489;-75
2023/03/25 06:14:05;;;;;;;6.10;3.60;;;8.80;99.90;;;;;;4963123;28;20486;-73
2023/03/25 06:16:34;;;;;;;4.70;3.73;;;8.80;99.90;;;;;;4965002;28;21739;-73
2023/03/25 06:19:04;;;;;;;3.50;3.20;;;8.80;99.90;;;;;;4961565;28;20474;-73
2023/03/25 06:21:33;;;;;;;5.83;3.87;;;8.90;99.90;;;;;;4954105;28;20462;-72
2023/03/25 06:24:01;;;;;;;6.33;3.83;;;8.90;99.90;;;;;;4984438;28;20481;-74
2023/03/25 06:26:31;;;;;;;7.17;4.30;;;8.90;99.90;;;;;;4988709;28;20990;-75
2023/03/25 06:29:00;;;;;;;4.70;3.83;;;8.90;99.90;;;;;;4987692;28;20502;-74
2023/03/25 06:31:32;;;;;;;4.40;3.80;;;8.90;99.90;;;;;;4985189;28;20492;-75
2023/03/25 06:34:02;;;;;;;5.33;4.10;;;8.90;99.90;;;;;;4967219;28;20473;-73
2023/03/25 06:36:31;;;;;;;9.40;4.10;;;8.90;99.90;;;;;;4971208;28;20487;-73
2023/03/25 06:38:59;;;;;;;4.90;4.37;;;8.90;99.90;;;;;;4971481;28;20478;-74
2023/03/25 06:41:27;;;;;;;8.80;4.73;;;9.00;99.90;;;;;;4968195;28;20856;-74
2023/03/25 06:43:55;;;;;;;5.10;3.87;;;9.00;99.90;;;;;;4972295;28;20532;-75
2023/03/25 06:46:23;;;;;;;7.03;4.23;;;9.00;99.90;;;;;;4971626;28;20509;-74
2023/03/25 06:48:51;;;;;;;4.47;4.03;;;9.00;99.90;;;;;;4967281;28;21048;-74
2023/03/25 06:51:22;;;;;;;4.87;4.37;;;9.00;99.90;;;;;;4965020;28;20520;-75
2023/03/25 06:53:50;;;;;;;5.70;4.53;;;8.90;99.90;;;;;;4971359;28;20509;-75
2023/03/25 06:56:18;;;;;;;4.70;4.00;;;8.90;99.90;;;;;;4970052;28;20505;-74
2023/03/25 06:58:46;;;;;;;4.90;4.40;;;9.00;99.90;;;;;;4956768;28;20476;-74
2023/03/25 07:01:14;;;;;;;5.20;4.30;;;8.90;99.90;;;;;;4959104;28;20490;-74
2023/03/25 07:03:43;;;;;;;4.83;4.33;;;9.00;99.90;;;;;;4964477;28;20486;-75
2023/03/25 07:06:15;;;;;;;4.03;3.70;;;9.00;99.90;;;;;;4970130;28;20485;-75
2023/03/25 07:08:45;;;;;;;6.43;4.17;;;8.90;99.90;;;;;;4968079;28;20482;-75
2023/03/25 07:11:14;;;;;;;3.90;3.60;;;8.90;99.90;;;;;;4958757;28;20506;-73
2023/03/25 07:13:42;;;;;;;5.23;4.27;;;8.90;99.90;;;;;;4977160;28;20497;-73
2023/03/25 07:16:11;;;;;;;4.50;3.63;;;8.90;99.90;;;;;;4988022;28;20465;-72
2023/03/25 07:18:41;;;;;;;5.67;3.77;;;8.90;99.90;;;;;;4991120;28;20573;-71
2023/03/25 07:21:09;;;;;;;6.40;3.97;;;8.90;99.90;;;;;;4981268;28;20486;-69
2023/03/25 07:23:37;;;;;;;6.57;4.03;;;8.90;99.90;;;;;;4978902;28;20485;-72
2023/03/25 07:26:07;;;;;;;5.33;4.10;;;9.00;99.90;;;;;;4978896;28;20481;-73
2023/03/25 07:28:36;;;;;;;7.73;4.40;;;9.00;99.90;;;;;;4980528;28;20480;-73
2023/03/25 07:31:07;;;;;;;5.87;3.93;;;9.10;99.90;;;;;;4982837;28;20500;-72
2023/03/25 07:33:35;;;;;;;5.47;4.00;;;9.10;99.90;;;;;;4960542;28;20964;-71
2023/03/25 07:36:04;;;;;;;9.33;4.37;;;9.10;99.90;;;;;;4963542;28;20993;-73
2023/03/25 07:38:33;;;;;;;6.87;4.13;;;9.10;99.90;;;;;;4953951;28;20505;-75
2023/03/25 07:41:07;;;;;;;7.03;3.97;;;9.20;99.90;;;;;;4968418;28;20515;-72
2023/03/25 07:43:35;;;;;;;5.23;3.83;;;9.20;99.90;;;;;;4965398;28;20491;-71
2023/03/25 07:46:03;;;;;;;7.10;4.23;;;9.20;99.90;;;;;;4978292;28;20485;-71
2023/03/25 07:48:31;;;;;;;6.37;3.70;;;9.20;99.90;;;;;;4952038;28;20559;-70
2023/03/25 07:50:59;;;;;;;5.23;3.70;;;9.20;99.90;;;;;;4962146;28;20496;-70
2023/03/25 07:53:27;;;;;;;8.13;4.07;;;9.30;99.90;;;;;;4968041;28;20497;-71
2023/03/25 07:55:55;;;;;;;6.17;3.77;;;9.30;99.90;;;;;;4969700;28;21449;-72
2023/03/25 07:58:25;;;;;;;4.40;3.20;;;9.40;99.90;;;;;;4958301;28;20975;-71
2023/03/25 08:00:56;;;;;;;5.97;4.70;;;9.40;99.90;;;;;;4971892;28;20492;-71
2023/03/25 08:03:24;;;;;;;4.50;3.60;;;9.40;99.90;;;;;;4959105;28;20477;-71
2023/03/25 08:05:52;;;;;;;7.20;3.67;;;9.50;99.90;;;;;;4956322;28;20470;-72
2023/03/25 08:08:21;;;;;;;3.63;3.30;;;9.50;99.90;;;;;;4970134;28;20918;-72
2023/03/25 08:10:51;;;;;;;7.20;3.70;;;9.60;99.90;;;;;;4968114;28;21108;-71
2023/03/25 08:13:19;;;;;;;5.07;3.60;;;9.60;99.90;;;;;;4970607;28;20492;-72
2023/03/25 08:15:48;;;;;;;6.23;3.57;;;9.70;99.90;;;;;;4967420;28;20476;-71
2023/03/25 08:18:17;;;;;;;3.83;2.93;;;9.80;99.90;;;;;;4962084;28;20839;-68
2023/03/25 08:20:45;;;;;;;4.07;3.63;;;9.80;99.90;;;;;;4961654;28;21093;-72
2023/03/25 08:23:18;;;;;;;5.30;3.30;;;9.90;99.90;;;;;;4959579;28;20496;-71
2023/03/25 08:25:49;;;;;;;6.70;3.10;;;10.00;99.90;;;;;;4960961;28;20477;-70
2023/03/25 08:28:21;;;;;;;7.03;3.07;;;10.00;99.90;;;;;;4962670;28;20493;-70
2023/03/25 08:30:53;;;;;;;6.87;3.53;;;10.10;99.90;;;;;;4964022;28;20597;-72
2023/03/25 08:33:25;;;;;;;5.30;3.40;;;10.10;99.90;;;;;;4975548;28;21128;-70
2023/03/25 08:35:57;;;;;;;3.63;3.30;;;10.20;99.90;;;;;;4977850;28;20501;-71
2023/03/25 08:38:30;;;;;;;6.33;3.40;;;10.10;99.90;;;;;;4980072;28;20539;-71
2023/03/25 08:41:02;;;;;;;4.23;2.77;;;10.10;99.90;;;;;;4971494;28;20500;-71
2023/03/25 08:43:30;;;;;;;7.23;3.67;;;10.00;99.90;;;;;;4979898;28;21018;-71
2023/03/25 08:45:59;;;;;;;3.87;3.30;;;10.00;99.90;;;;;;4983560;28;20480;-72
2023/03/25 08:48:27;;;;;;;5.93;3.33;;;9.90;99.90;;;;;;4980289;28;20848;-71
2023/03/25 08:50:55;;;;;;;5.33;3.63;;;9.90;99.90;;;;;;4980757;28;20485;-71
2023/03/25 08:53:24;;;;;;;3.90;3.23;;;9.90;99.90;;;;;;4981493;28;20492;-72
2023/03/25 08:55:52;;;;;;;5.00;3.03;;;9.90;99.90;;;;;;4980817;28;21017;-71
2023/03/25 08:58:21;;;;;;;4.67;2.90;;;9.80;99.90;;;;;;4975946;28;20852;-70
2023/03/25 09:00:53;;;;;;;5.47;3.00;;;9.80;99.90;;;;;;4967381;28;20493;-71
2023/03/25 09:03:22;;;;;;;5.50;3.37;;;9.80;99.90;;;;;;4971151;28;20543;-71
2023/03/25 09:05:50;;;;;;;5.80;3.10;;;9.70;99.90;;;;;;4974979;28;20843;-70
2023/03/25 09:08:19;;;;;;;4.93;3.20;;;9.60;99.90;;;;;;4983477;28;20640;-71
2023/03/25 09:10:47;;;;;;;4.90;3.30;;;9.60;99.90;;;;;;4980441;28;20489;-71
2023/03/25 09:13:16;;;;;;;6.80;3.37;;;9.50;99.90;;;;;;4982684;28;20576;-74
2023/03/25 09:15:45;;;;;;;4.07;2.93;;;9.50;99.90;;;;;;4982024;28;20561;-71
2023/03/25 09:18:14;;;;;;;6.03;2.93;;;9.40;99.90;;;;;;4982568;28;20555;-70
2023/03/25 09:20:46;;;;;;;2.90;2.03;;;9.40;99.90;;;;;;4983733;28;20497;-71
2023/03/25 09:23:14;;;;;;;3.23;1.50;;;9.30;99.90;;;;;;4982036;28;20524;-70
2023/03/25 09:25:43;;;;;;;2.53;1.43;;;9.30;99.90;;;;;;4974716;28;20470;-71
2023/03/25 09:28:11;;;;;;;3.07;1.30;;;9.30;99.90;;;;;;4976246;28;20522;-71
2023/03/25 09:30:39;;;;;;;3.73;1.60;;;9.30;99.90;;;;;;4974255;28;20493;-71
2023/03/25 09:33:07;;;;;;;2.23;1.60;;;9.20;99.90;;;;;;4974365;28;20520;-71
2023/03/25 09:35:35;;;;;;;2.80;1.37;;;9.20;99.90;;;;;;4970019;28;20473;-71
2023/03/25 09:38:05;;;;;;;2.20;1.87;;;9.20;99.90;;;;;;4976335;28;20471;-70
2023/03/25 09:40:34;;;;;;;3.40;2.43;;;9.10;99.90;;;;;;4977177;28;20884;-71
2023/03/25 09:43:32;;;;;;;1.87;1.40;;;9.10;99.90;;;;;;4981045;28;20488;-72
2023/03/25 09:46:00;;;;;;;2.10;1.90;;;9.10;99.90;;;;;;4978537;28;20509;-71
2023/03/25 09:48:34;;;;;;;1.90;1.60;;;9.10;99.90;;;;;;4980768;28;20477;-71
2023/03/25 09:51:05;;;;;;;2.47;1.90;;;9.00;99.90;;;;;;4975859;28;20499;-71
2023/03/25 09:53:39;;;;;;;5.10;1.80;;;9.00;99.90;;;;;;4976270;28;20820;-71
2023/03/25 09:56:16;;;;;;;2.53;1.70;;;9.00;99.90;;;;;;4975752;28;20476;-71
2023/03/25 09:58:46;;;;;;;2.83;1.83;;;9.00;99.90;;;;;;4984586;28;20527;-72
2023/03/25 10:01:35;;;;;;;3.17;2.00;;;9.00;99.90;;;;;;4967173;28;20488;-71
2023/03/25 10:04:38;;;;;;;2.60;2.07;;;9.00;99.90;;;;;;4960972;28;20537;-76
2023/03/25 10:07:14;;;;;;;5.27;1.80;;;9.10;99.90;;;;;;4967958;28;20468;-72
2023/03/25 10:09:51;;;;;;;3.20;2.20;;;9.20;99.90;;;;;;4961339;28;20497;-72
2023/03/25 10:12:32;;;;;;;2.53;1.90;;;9.20;99.90;;;;;;4950093;28;20497;-72
2023/03/25 10:15:13;;;;;;;2.13;1.90;;;9.30;99.90;;;;;;4963326;28;20481;-72
2023/03/25 10:17:55;;;;;;;2.47;1.63;;;9.30;99.90;;;;;;4956654;28;20890;-72
2023/03/25 10:20:38;;;;;;;2.53;2.07;;;9.30;99.90;;;;;;4957566;28;20493;-72
2023/03/25 10:23:18;;;;;;;1.87;1.70;;;9.40;99.90;;;;;;4944517;28;20490;-71
2023/03/25 10:25:54;;;;;;;1.20;1.10;;;9.40;99.90;;;;;;4954167;28;20474;-71
2023/03/25 10:28:30;;;;;;;2.50;1.60;;;9.40;99.90;;;;;;4953169;28;20470;-71
2023/03/25 10:30:58;;;;;;;3.53;1.90;;;9.50;99.90;;;;;;4952816;28;20489;-73
2023/03/25 10:33:33;;;;;;;3.30;1.90;;;9.70;99.90;;;;;;4953240;28;20503;-72
2023/03/25 10:36:03;;;;;;;3.10;2.27;;;9.90;99.90;;;;;;4964652;28;20481;-73
2023/03/25 10:38:33;;;;;;;4.17;2.30;;;10.00;99.90;;;;;;4973487;28;20612;-71
2023/03/25 10:41:14;;;;;;;7.30;2.20;;;10.10;99.90;;;;;;4965756;28;20508;-71
2023/03/25 10:43:43;;;;;;;2.40;1.50;;;10.20;99.90;;;;;;4969942;28;20981;-71
2023/03/25 10:46:18;;;;;;;3.20;2.23;;;10.30;99.90;;;;;;4964813;28;20469;-71
2023/03/25 10:48:48;;;;;;;5.50;2.80;;;10.30;99.90;;;;;;4965420;28;20468;-71
2023/03/25 10:51:19;;;;;;;3.17;1.93;;;10.30;99.90;;;;;;4971558;28;20497;-71
2023/03/25 10:53:51;;;;;;;3.43;2.33;;;10.40;99.90;;;;;;4970863;28;20954;-71
2023/03/25 10:56:24;;;;;;;4.30;2.50;;;10.40;99.90;;;;;;4969628;28;20556;-71
2023/03/25 10:58:55;;;;;;;5.13;2.47;;;10.40;99.90;;;;;;4969767;28;20489;-72
2023/03/25 11:01:35;;;;;;;5.27;2.97;;;10.50;99.90;;;;;;4957930;28;20516;-70
2023/03/25 11:04:07;;;;;;;7.00;2.73;;;10.40;99.90;;;;;;4959750;28;20473;-71
2023/03/25 11:06:38;;;;;;;3.87;2.43;;;10.40;99.90;;;;;;4964363;28;20485;-71
2023/03/25 11:09:16;;;;;;;7.33;2.90;;;10.30;99.90;;;;;;4972194;28;20485;-71
2023/03/25 11:11:47;;;;;;;4.40;2.33;;;10.30;99.90;;;;;;4975985;28;20982;-71
2023/03/25 11:14:16;;;;;;;3.20;2.53;;;10.30;99.90;;;;;;4971700;28;20493;-72
2023/03/25 11:16:47;;;;;;;5.33;3.00;;;10.20;99.90;;;;;;4975112;28;20486;-71
2023/03/25 11:19:20;;;;;;;6.30;3.50;;;10.10;99.90;;;;;;4979488;28;21038;-71
2023/03/25 11:21:54;;;;;;;3.37;3.00;;;10.00;99.90;;;;;;4977536;28;20497;-71
2023/03/25 11:24:27;;;;;;;5.07;2.60;;;9.90;99.90;;;;;;4972308;28;20564;-71
2023/03/25 11:26:57;;;;;;;3.37;2.60;;;9.80;99.90;;;;;;4968401;28;20509;-71
2023/03/25 11:29:27;;;;;;;2.63;2.40;;;9.80;99.90;;;;;;4974267;28;21534;-71
2023/03/25 11:32:05;;;;;;;2.80;2.13;;;9.70;99.90;;;;;;4976178;28;21268;-72
2023/03/25 11:34:40;;;;;;;3.43;2.20;;;9.70;99.90;;;;;;4972690;28;20514;-71
2023/03/25 11:37:16;;;;;;;4.40;2.33;;;9.60;99.90;;;;;;4977957;28;20482;-72
2023/03/25 11:39:49;;;;;;;2.83;2.20;;;9.70;99.90;;;;;;4975133;28;20508;-70
2023/03/25 11:42:31;;;;;;;6.50;2.87;;;9.80;99.90;;;;;;4975578;28;20576;-71
2023/03/25 11:45:02;;;;;;;2.93;2.50;;;10.00;99.90;;;;;;4966999;28;20469;-71
2023/03/25 11:47:32;;;;;;;2.27;1.80;;;10.10;99.90;;;;;;4970228;28;21036;-71
2023/03/25 11:50:01;;;;;;;2.57;2.33;;;10.30;99.90;;;;;;4955646;28;20651;-71
2023/03/25 11:52:36;;;;;;;3.50;1.80;;;10.50;99.90;;;;;;4966719;28;20519;-72
2023/03/25 11:55:04;;;;;;;1.57;1.47;;;10.70;99.90;;;;;;4977712;28;21347;-71
2023/03/25 11:57:39;;;;;;;3.43;1.60;;;10.90;99.90;;;;;;4966478;28;20483;-71
2023/03/25 12:00:30;;;;;;;2.50;1.40;;;10.90;99.90;;;;;;4968584;28;20499;-73
2023/03/25 12:03:03;;;;;;;2.30;1.17;;;11.00;99.90;;;;;;4972428;28;20496;-71
2023/03/25 12:05:31;;;;;;;1.30;1.20;;;11.20;99.90;;;;;;4964716;28;20557;-71
2023/03/25 12:08:13;;;;;;;1.33;1.10;;;11.50;99.90;;;;;;4955623;28;20481;-71
2023/03/25 12:10:53;;;;;;;1.30;1.20;;;11.90;99.90;;;;;;4970674;28;20583;-71
2023/03/25 12:13:39;;;;;;;1.43;1.10;;;11.90;99.90;;;;;;4977708;28;20816;-72
2023/03/25 12:16:20;;;;;;;2.47;1.30;;;11.70;99.90;;;;;;4976809;28;20484;-71
2023/03/25 12:18:59;;;;;;;2.70;1.30;;;11.40;99.90;;;;;;4978301;28;21302;-72
2023/03/25 12:21:45;;;;;;;2.70;1.37;;;11.20;99.90;;;;;;4970409;28;20473;-74
2023/03/25 12:24:25;;;;;;;1.40;0.90;;;11.10;99.90;;;;;;4981547;28;20469;-73
2023/03/25 12:27:10;;;;;;;1.70;1.37;;;10.90;99.90;;;;;;4975133;28;20477;-74
2023/03/25 12:29:47;;;;;;;3.07;1.40;;;10.80;99.90;;;;;;4970149;28;20868;-73
2023/03/25 12:32:26;;;;;;;3.50;1.50;;;10.70;99.90;;;;;;4978014;28;20485;-74
2023/03/25 12:35:05;;;;;;;1.97;1.30;;;10.90;99.90;;;;;;4958908;28;20501;-74
2023/03/25 12:37:41;;;;;;;3.23;1.40;;;11.00;99.90;;;;;;4942881;28;20496;-75
2023/03/25 12:40:28;;;;;;;1.90;1.30;;;11.30;99.90;;;;;;4955654;28;20497;-74
2023/03/25 12:43:03;;;;;;;4.00;1.80;;;11.50;99.90;;;;;;4957312;28;21176;-73
2023/03/25 12:45:45;;;;;;;3.07;1.60;;;11.60;99.90;;;;;;4961066;28;20476;-74
2023/03/25 12:48:27;;;;;;;3.13;2.20;;;11.60;99.90;;;;;;4958707;28;20545;-71
2023/03/25 12:51:05;;;;;;;3.43;1.87;;;11.50;99.90;;;;;;4957416;28;20498;-74
2023/03/25 12:53:45;;;;;;;1.70;1.37;;;11.40;99.90;;;;;;4962202;28;23011;-74
2023/03/25 12:56:25;;;;;;;2.27;1.67;;;11.30;99.90;;;;;;4977734;28;20479;-74
2023/03/25 12:59:13;;;;;;;2.23;1.80;;;11.20;99.90;;;;;;4954954;28;21945;-74
2023/03/25 13:01:52;;;;;;;2.10;1.90;;;11.10;99.90;;;;;;4967093;28;20488;-74
2023/03/25 13:04:47;;;;;;;2.93;1.80;;;11.00;99.90;;;;;;4963153;28;21068;-76
2023/03/25 13:07:20;;;;;;;2.60;1.60;;;10.90;99.90;;;;;;4970166;28;20477;-78
2023/03/25 13:10:00;;;;;;;2.37;1.90;;;10.90;99.90;;;;;;4971698;28;20497;-80
2023/03/25 13:12:32;;;;;;;1.80;1.70;;;10.90;99.90;;;;;;4963123;28;20493;-74
2023/03/25 13:15:06;;;;;;;3.40;2.20;;;10.80;99.90;;;;;;4963647;28;20592;-75
2023/03/25 13:17:40;;;;;;;2.10;1.80;;;10.70;99.90;;;;;;4953813;28;20488;-79
2023/03/25 13:20:10;;;;;;;2.83;2.07;;;10.70;99.90;;;;;;4954379;28;20625;-77
2023/03/25 13:22:43;;;;;;;2.70;2.50;;;10.60;99.90;;;;;;4969624;28;20493;-77